sensor_id;sensor_type;location;lat;lon;timestamp;P1;durP1;ratioP1;P2;durP2;ratioP2
14080;SDS011;7116;52.152;5.392;2023-04-01T00:00:19;12.97;;;6.17;;
14080;SDS011;7116;52.152;5.392;2023-04-01T00:02:44;12.73;;;5.90;;
14080;SDS011;7116;52.152;5.392;2023-04-01T00:05:10;15.07;;;5.90;;
14080;SDS011;7116;52.152;5.392;2023-04-01T00:07:35;21.97;;;7.13;;
14080;SDS011;7116;52.152;5.392;2023-04-01T00:10:01;16.95;;;5.97;;
14080;SDS011;7116;52.152;5.392;2023-04-01T00:12:26;14.90;;;6.90;;
14080;SDS011;7116;52.152;5.392;2023-04-01T00:14:51;11.63;;;6.07;;
14080;SDS011;7116;52.152;5.392;2023-04-01T00:17:16;13.10;;;7.50;;
14080;SDS011;7116;52.152;5.392;2023-04-01T00:19:42;17.77;;;6.13;;
14080;SDS011;7116;52.152;5.392;2023-04-01T00:22:07;13.27;;;6.23;;
14080;SDS011;7116;52.152;5.392;2023-04-01T00:24:36;13.05;;;5.47;;
14080;SDS011;7116;52.152;5.392;2023-04-01T00:27:01;15.80;;;6.83;;
14080;SDS011;7116;52.152;5.392;2023-04-01T00:29:26;15.37;;;7.07;;
14080;SDS011;7116;52.152;5.392;2023-04-01T00:31:56;16.63;;;6.45;;
14080;SDS011;7116;52.152;5.392;2023-04-01T00:34:21;19.50;;;7.35;;
14080;SDS011;7116;52.152;5.392;2023-04-01T00:36:46;15.77;;;6.20;;
14080;SDS011;7116;52.152;5.392;2023-04-01T00:39:11;13.27;;;6.50;;
14080;SDS011;7116;52.152;5.392;2023-04-01T00:41:37;13.07;;;6.90;;
14080;SDS011;7116;52.152;5.392;2023-04-01T00:44:14;18.27;;;7.07;;
14080;SDS011;7116;52.152;5.392;2023-04-01T00:46:39;15.15;;;7.40;;
14080;SDS011;7116;52.152;5.392;2023-04-01T00:49:04;13.67;;;5.40;;
14080;SDS011;7116;52.152;5.392;2023-04-01T00:51:30;15.40;;;5.77;;
14080;SDS011;7116;52.152;5.392;2023-04-01T00:53:56;14.30;;;6.07;;
14080;SDS011;7116;52.152;5.392;2023-04-01T00:56:22;15.23;;;6.45;;
14080;SDS011;7116;52.152;5.392;2023-04-01T00:58:51;14.03;;;6.33;;
14080;SDS011;7116;52.152;5.392;2023-04-01T01:01:18;13.50;;;7.10;;
14080;SDS011;7116;52.152;5.392;2023-04-01T01:03:43;16.45;;;7.05;;
14080;SDS011;7116;52.152;5.392;2023-04-01T01:08:50;13.10;;;6.70;;
14080;SDS011;7116;52.152;5.392;2023-04-01T01:11:18;14.93;;;6.47;;
14080;SDS011;7116;52.152;5.392;2023-04-01T01:13:48;14.40;;;7.07;;
14080;SDS011;7116;52.152;5.392;2023-04-01T01:16:29;16.77;;;6.83;;
14080;SDS011;7116;52.152;5.392;2023-04-01T01:19:01;14.13;;;6.43;;
14080;SDS011;7116;52.152;5.392;2023-04-01T01:21:51;14.52;;;6.90;;
14080;SDS011;7116;52.152;5.392;2023-04-01T01:24:30;13.02;;;6.93;;
14080;SDS011;7116;52.152;5.392;2023-04-01T01:27:03;15.57;;;7.00;;
14080;SDS011;7116;52.152;5.392;2023-04-01T01:37:23;9.63;;;5.75;;
14080;SDS011;7116;52.152;5.392;2023-04-01T01:39:52;8.40;;;4.97;;
14080;SDS011;7116;52.152;5.392;2023-04-01T01:42:18;11.97;;;5.83;;
14080;SDS011;7116;52.152;5.392;2023-04-01T01:44:45;9.90;;;4.82;;
14080;SDS011;7116;52.152;5.392;2023-04-01T01:47:12;8.35;;;4.65;;
14080;SDS011;7116;52.152;5.392;2023-04-01T01:49:38;8.43;;;4.82;;
14080;SDS011;7116;52.152;5.392;2023-04-01T01:52:03;8.27;;;4.13;;
14080;SDS011;7116;52.152;5.392;2023-04-01T01:54:29;7.07;;;4.33;;
14080;SDS011;7116;52.152;5.392;2023-04-01T01:57:01;8.00;;;4.30;;
14080;SDS011;7116;52.152;5.392;2023-04-01T01:59:28;6.20;;;4.32;;
14080;SDS011;7116;52.152;5.392;2023-04-01T02:01:54;7.60;;;4.17;;
14080;SDS011;7116;52.152;5.392;2023-04-01T02:04:20;6.15;;;3.78;;
14080;SDS011;7116;52.152;5.392;2023-04-01T02:06:48;8.02;;;3.30;;
14080;SDS011;7116;52.152;5.392;2023-04-01T02:09:14;7.07;;;3.90;;
14080;SDS011;7116;52.152;5.392;2023-04-01T02:11:46;5.13;;;3.20;;
14080;SDS011;7116;52.152;5.392;2023-04-01T02:14:25;5.75;;;3.60;;
14080;SDS011;7116;52.152;5.392;2023-04-01T02:19:17;5.20;;;3.17;;
14080;SDS011;7116;52.152;5.392;2023-04-01T02:21:47;4.75;;;3.60;;
14080;SDS011;7116;52.152;5.392;2023-04-01T02:24:14;6.68;;;3.50;;
14080;SDS011;7116;52.152;5.392;2023-04-01T02:26:40;5.90;;;3.53;;
14080;SDS011;7116;52.152;5.392;2023-04-01T02:29:06;7.27;;;3.37;;
14080;SDS011;7116;52.152;5.392;2023-04-01T02:31:33;6.20;;;3.65;;
14080;SDS011;7116;52.152;5.392;2023-04-01T02:33:59;3.70;;;2.55;;
14080;SDS011;7116;52.152;5.392;2023-04-01T02:36:24;4.47;;;3.60;;
14080;SDS011;7116;52.152;5.392;2023-04-01T02:38:50;5.37;;;3.60;;
14080;SDS011;7116;52.152;5.392;2023-04-01T02:41:16;6.35;;;3.50;;
14080;SDS011;7116;52.152;5.392;2023-04-01T02:43:41;7.63;;;4.00;;
14080;SDS011;7116;52.152;5.392;2023-04-01T02:46:06;4.60;;;3.00;;
14080;SDS011;7116;52.152;5.392;2023-04-01T02:48:32;6.60;;;3.80;;
14080;SDS011;7116;52.152;5.392;2023-04-01T02:50:57;7.17;;;3.90;;
14080;SDS011;7116;52.152;5.392;2023-04-01T02:53:22;5.27;;;3.50;;
14080;SDS011;7116;52.152;5.392;2023-04-01T02:55:47;5.30;;;3.43;;
14080;SDS011;7116;52.152;5.392;2023-04-01T02:58:15;5.95;;;4.03;;
14080;SDS011;7116;52.152;5.392;2023-04-01T03:00:40;5.00;;;3.30;;
14080;SDS011;7116;52.152;5.392;2023-04-01T03:03:07;4.93;;;2.80;;
14080;SDS011;7116;52.152;5.392;2023-04-01T03:05:32;5.00;;;3.30;;
14080;SDS011;7116;52.152;5.392;2023-04-01T03:07:57;4.57;;;2.90;;
14080;SDS011;7116;52.152;5.392;2023-04-01T03:10:22;3.60;;;3.07;;
14080;SDS011;7116;52.152;5.392;2023-04-01T03:12:47;4.03;;;2.80;;
14080;SDS011;7116;52.152;5.392;2023-04-01T03:15:13;5.03;;;3.50;;
14080;SDS011;7116;52.152;5.392;2023-04-01T03:17:39;5.35;;;3.33;;
14080;SDS011;7116;52.152;5.392;2023-04-01T03:20:05;6.43;;;3.27;;
14080;SDS011;7116;52.152;5.392;2023-04-01T03:22:30;5.30;;;3.27;;
14080;SDS011;7116;52.152;5.392;2023-04-01T03:24:56;5.20;;;3.50;;
14080;SDS011;7116;52.152;5.392;2023-04-01T03:27:21;4.87;;;3.43;;
14080;SDS011;7116;52.152;5.392;2023-04-01T03:29:46;4.77;;;3.40;;
14080;SDS011;7116;52.152;5.392;2023-04-01T03:32:11;6.63;;;4.27;;
14080;SDS011;7116;52.152;5.392;2023-04-01T03:34:36;4.63;;;3.60;;
14080;SDS011;7116;52.152;5.392;2023-04-01T03:37:02;5.90;;;4.20;;
14080;SDS011;7116;52.152;5.392;2023-04-01T03:39:27;7.00;;;4.50;;
14080;SDS011;7116;52.152;5.392;2023-04-01T03:41:52;7.00;;;5.33;;
14080;SDS011;7116;52.152;5.392;2023-04-01T03:44:17;8.50;;;5.00;;
14080;SDS011;7116;52.152;5.392;2023-04-01T03:46:42;8.53;;;5.70;;
14080;SDS011;7116;52.152;5.392;2023-04-01T03:49:08;9.93;;;6.57;;
14080;SDS011;7116;52.152;5.392;2023-04-01T03:51:40;10.80;;;7.43;;
14080;SDS011;7116;52.152;5.392;2023-04-01T03:54:05;12.95;;;7.85;;
14080;SDS011;7116;52.152;5.392;2023-04-01T03:56:31;11.77;;;8.27;;
14080;SDS011;7116;52.152;5.392;2023-04-01T03:58:56;14.18;;;9.13;;
14080;SDS011;7116;52.152;5.392;2023-04-01T04:01:22;10.63;;;7.47;;
14080;SDS011;7116;52.152;5.392;2023-04-01T04:03:47;16.63;;;9.37;;
14080;SDS011;7116;52.152;5.392;2023-04-01T04:06:14;13.98;;;8.38;;
14080;SDS011;7116;52.152;5.392;2023-04-01T04:08:39;14.40;;;8.50;;
14080;SDS011;7116;52.152;5.392;2023-04-01T04:11:04;14.63;;;9.37;;
14080;SDS011;7116;52.152;5.392;2023-04-01T04:13:30;11.13;;;8.00;;
14080;SDS011;7116;52.152;5.392;2023-04-01T04:15:55;17.20;;;8.85;;
14080;SDS011;7116;52.152;5.392;2023-04-01T04:18:20;11.40;;;7.25;;
14080;SDS011;7116;52.152;5.392;2023-04-01T04:20:45;13.70;;;8.30;;
14080;SDS011;7116;52.152;5.392;2023-04-01T04:23:15;10.83;;;7.27;;
14080;SDS011;7116;52.152;5.392;2023-04-01T04:25:41;9.43;;;6.77;;
14080;SDS011;7116;52.152;5.392;2023-04-01T04:28:06;10.70;;;7.73;;
14080;SDS011;7116;52.152;5.392;2023-04-01T04:30:31;11.67;;;7.60;;
14080;SDS011;7116;52.152;5.392;2023-04-01T04:32:56;10.83;;;7.40;;
14080;SDS011;7116;52.152;5.392;2023-04-01T04:35:22;9.23;;;6.87;;
14080;SDS011;7116;52.152;5.392;2023-04-01T04:37:47;10.23;;;6.17;;
14080;SDS011;7116;52.152;5.392;2023-04-01T04:40:12;9.77;;;6.73;;
14080;SDS011;7116;52.152;5.392;2023-04-01T04:42:37;9.33;;;6.03;;
14080;SDS011;7116;52.152;5.392;2023-04-01T04:45:02;9.10;;;6.40;;
14080;SDS011;7116;52.152;5.392;2023-04-01T04:47:28;7.70;;;5.63;;
14080;SDS011;7116;52.152;5.392;2023-04-01T04:49:53;8.60;;;6.00;;
14080;SDS011;7116;52.152;5.392;2023-04-01T04:52:18;7.23;;;5.33;;
14080;SDS011;7116;52.152;5.392;2023-04-01T04:54:43;6.27;;;4.57;;
14080;SDS011;7116;52.152;5.392;2023-04-01T04:57:09;6.47;;;4.53;;
14080;SDS011;7116;52.152;5.392;2023-04-01T04:59:34;5.97;;;4.30;;
14080;SDS011;7116;52.152;5.392;2023-04-01T05:02:00;7.83;;;5.07;;
14080;SDS011;7116;52.152;5.392;2023-04-01T05:04:25;7.63;;;4.70;;
14080;SDS011;7116;52.152;5.392;2023-04-01T05:06:51;5.57;;;4.37;;
14080;SDS011;7116;52.152;5.392;2023-04-01T05:09:16;6.63;;;4.80;;
14080;SDS011;7116;52.152;5.392;2023-04-01T05:11:41;7.37;;;5.43;;
14080;SDS011;7116;52.152;5.392;2023-04-01T05:14:14;6.68;;;4.63;;
14080;SDS011;7116;52.152;5.392;2023-04-01T05:16:39;8.27;;;5.10;;
14080;SDS011;7116;52.152;5.392;2023-04-01T05:19:04;10.57;;;5.87;;
14080;SDS011;7116;52.152;5.392;2023-04-01T05:21:30;7.07;;;5.33;;
14080;SDS011;7116;52.152;5.392;2023-04-01T05:23:55;8.20;;;5.40;;
14080;SDS011;7116;52.152;5.392;2023-04-01T05:26:20;8.17;;;5.27;;
14080;SDS011;7116;52.152;5.392;2023-04-01T05:28:45;7.70;;;6.10;;
14080;SDS011;7116;52.152;5.392;2023-04-01T05:31:10;7.53;;;5.50;;
14080;SDS011;7116;52.152;5.392;2023-04-01T05:33:36;12.67;;;5.80;;
14080;SDS011;7116;52.152;5.392;2023-04-01T05:36:11;6.50;;;4.93;;
14080;SDS011;7116;52.152;5.392;2023-04-01T05:38:37;8.43;;;5.78;;
14080;SDS011;7116;52.152;5.392;2023-04-01T05:41:02;6.43;;;5.23;;
14080;SDS011;7116;52.152;5.392;2023-04-01T05:43:28;6.93;;;5.27;;
14080;SDS011;7116;52.152;5.392;2023-04-01T05:45:54;8.32;;;5.28;;
14080;SDS011;7116;52.152;5.392;2023-04-01T05:48:20;5.53;;;4.60;;
14080;SDS011;7116;52.152;5.392;2023-04-01T05:50:45;6.03;;;4.90;;
14080;SDS011;7116;52.152;5.392;2023-04-01T05:53:10;5.47;;;4.20;;
14080;SDS011;7116;52.152;5.392;2023-04-01T05:55:35;4.60;;;3.90;;
14080;SDS011;7116;52.152;5.392;2023-04-01T05:58:01;4.95;;;3.97;;
14080;SDS011;7116;52.152;5.392;2023-04-01T06:00:26;5.10;;;4.07;;
14080;SDS011;7116;52.152;5.392;2023-04-01T06:02:51;4.50;;;3.60;;
14080;SDS011;7116;52.152;5.392;2023-04-01T06:07:42;5.83;;;4.47;;
14080;SDS011;7116;52.152;5.392;2023-04-01T06:10:18;5.80;;;3.90;;
14080;SDS011;7116;52.152;5.392;2023-04-01T06:20:53;6.05;;;4.82;;
14080;SDS011;7116;52.152;5.392;2023-04-01T06:26:00;6.07;;;5.07;;
14080;SDS011;7116;52.152;5.392;2023-04-01T06:30:57;5.47;;;4.22;;
14080;SDS011;7116;52.152;5.392;2023-04-01T06:44:04;5.78;;;4.30;;
14080;SDS011;7116;52.152;5.392;2023-04-01T06:54:21;4.20;;;3.65;;
14080;SDS011;7116;52.152;5.392;2023-04-01T06:56:50;4.88;;;4.22;;
14080;SDS011;7116;52.152;5.392;2023-04-01T06:59:21;5.30;;;4.00;;
14080;SDS011;7116;52.152;5.392;2023-04-01T07:01:54;4.30;;;3.63;;
14080;SDS011;7116;52.152;5.392;2023-04-01T07:04:25;4.40;;;3.58;;
14080;SDS011;7116;52.152;5.392;2023-04-01T07:06:56;4.60;;;3.43;;
14080;SDS011;7116;52.152;5.392;2023-04-01T07:09:24;4.38;;;3.78;;
14080;SDS011;7116;52.152;5.392;2023-04-01T07:11:51;4.32;;;3.22;;
14080;SDS011;7116;52.152;5.392;2023-04-01T07:14:29;5.88;;;4.10;;
14080;SDS011;7116;52.152;5.392;2023-04-01T07:17:14;4.72;;;3.60;;
14080;SDS011;7116;52.152;5.392;2023-04-01T07:19:50;5.40;;;3.60;;
14080;SDS011;7116;52.152;5.392;2023-04-01T07:22:32;7.38;;;5.03;;
14080;SDS011;7116;52.152;5.392;2023-04-01T07:24:57;4.93;;;4.40;;
14080;SDS011;7116;52.152;5.392;2023-04-01T07:27:26;6.53;;;4.97;;
14080;SDS011;7116;52.152;5.392;2023-04-01T07:29:51;6.63;;;4.50;;
14080;SDS011;7116;52.152;5.392;2023-04-01T07:32:25;6.97;;;4.83;;
14080;SDS011;7116;52.152;5.392;2023-04-01T07:34:56;6.47;;;4.40;;
14080;SDS011;7116;52.152;5.392;2023-04-01T07:40:15;11.50;;;5.03;;
14080;SDS011;7116;52.152;5.392;2023-04-01T07:45:31;6.07;;;4.47;;
14080;SDS011;7116;52.152;5.392;2023-04-01T07:50:27;6.53;;;4.90;;
14080;SDS011;7116;52.152;5.392;2023-04-01T07:55:23;7.60;;;4.67;;
14080;SDS011;7116;52.152;5.392;2023-04-01T08:00:22;8.23;;;5.75;;
14080;SDS011;7116;52.152;5.392;2023-04-01T08:03:11;6.43;;;4.97;;
14080;SDS011;7116;52.152;5.392;2023-04-01T08:10:41;7.38;;;5.63;;
14080;SDS011;7116;52.152;5.392;2023-04-01T08:21:00;7.78;;;5.03;;
14080;SDS011;7116;52.152;5.392;2023-04-01T08:23:27;7.65;;;5.75;;
14080;SDS011;7116;52.152;5.392;2023-04-01T08:33:21;8.75;;;5.55;;
14080;SDS011;7116;52.152;5.392;2023-04-01T08:35:51;8.52;;;5.80;;
14080;SDS011;7116;52.152;5.392;2023-04-01T08:38:24;6.78;;;5.13;;
14080;SDS011;7116;52.152;5.392;2023-04-01T08:40:55;6.83;;;5.40;;
14080;SDS011;7116;52.152;5.392;2023-04-01T08:56:59;8.93;;;5.88;;
14080;SDS011;7116;52.152;5.392;2023-04-01T09:12:18;7.32;;;5.18;;
14080;SDS011;7116;52.152;5.392;2023-04-01T09:17:36;8.40;;;5.57;;
14080;SDS011;7116;52.152;5.392;2023-04-01T09:20:17;4.90;;;3.80;;
14080;SDS011;7116;52.152;5.392;2023-04-01T09:22:51;5.75;;;4.15;;
14080;SDS011;7116;52.152;5.392;2023-04-01T09:28:27;5.82;;;4.25;;
14080;SDS011;7116;52.152;5.392;2023-04-01T09:36:03;6.67;;;5.03;;
14080;SDS011;7116;52.152;5.392;2023-04-01T09:38:30;6.05;;;5.13;;
14080;SDS011;7116;52.152;5.392;2023-04-01T09:41:14;6.10;;;4.63;;
14080;SDS011;7116;52.152;5.392;2023-04-01T09:43:54;5.80;;;4.60;;
14080;SDS011;7116;52.152;5.392;2023-04-01T09:46:38;9.23;;;6.00;;
14080;SDS011;7116;52.152;5.392;2023-04-01T09:59:21;10.95;;;6.32;;
14080;SDS011;7116;52.152;5.392;2023-04-01T10:04:23;8.67;;;6.80;;
14080;SDS011;7116;52.152;5.392;2023-04-01T10:28:15;9.93;;;5.57;;
14080;SDS011;7116;52.152;5.392;2023-04-01T10:30:52;6.07;;;5.03;;
14080;SDS011;7116;52.152;5.392;2023-04-01T10:39:03;7.43;;;5.05;;
14080;SDS011;7116;52.152;5.392;2023-04-01T10:41:46;9.13;;;5.65;;
14080;SDS011;7116;52.152;5.392;2023-04-01T10:44:33;6.40;;;4.93;;
14080;SDS011;7116;52.152;5.392;2023-04-01T10:47:13;6.47;;;5.23;;
14080;SDS011;7116;52.152;5.392;2023-04-01T10:57:22;6.43;;;4.57;;
14080;SDS011;7116;52.152;5.392;2023-04-01T11:27:15;4.18;;;3.08;;
14080;SDS011;7116;52.152;5.392;2023-04-01T11:30:06;4.37;;;3.53;;
14080;SDS011;7116;52.152;5.392;2023-04-01T11:32:40;5.28;;;3.50;;
14080;SDS011;7116;52.152;5.392;2023-04-01T11:43:36;3.47;;;2.70;;
14080;SDS011;7116;52.152;5.392;2023-04-01T11:45:59;3.20;;;2.70;;
14080;SDS011;7116;52.152;5.392;2023-04-01T12:03:46;4.17;;;3.73;;
14080;SDS011;7116;52.152;5.392;2023-04-01T12:20:10;6.47;;;4.57;;
14080;SDS011;7116;52.152;5.392;2023-04-01T12:22:45;5.90;;;5.10;;
14080;SDS011;7116;52.152;5.392;2023-04-01T12:27:53;7.43;;;5.60;;
14080;SDS011;7116;52.152;5.392;2023-04-01T12:33:15;8.23;;;6.55;;
14080;SDS011;7116;52.152;5.392;2023-04-01T12:38:28;7.37;;;6.33;;
14080;SDS011;7116;52.152;5.392;2023-04-01T12:55:46;12.55;;;7.75;;
14080;SDS011;7116;52.152;5.392;2023-04-01T13:01:19;8.48;;;6.63;;
14080;SDS011;7116;52.152;5.392;2023-04-01T13:08:53;8.75;;;6.88;;
14080;SDS011;7116;52.152;5.392;2023-04-01T13:16:54;6.43;;;5.10;;
14080;SDS011;7116;52.152;5.392;2023-04-01T13:19:31;6.75;;;4.90;;
14080;SDS011;7116;52.152;5.392;2023-04-01T13:22:08;7.20;;;5.55;;
14080;SDS011;7116;52.152;5.392;2023-04-01T13:27:18;6.05;;;5.38;;
14080;SDS011;7116;52.152;5.392;2023-04-01T13:34:59;7.07;;;4.73;;
14080;SDS011;7116;52.152;5.392;2023-04-01T13:45:24;5.97;;;4.40;;
14080;SDS011;7116;52.152;5.392;2023-04-01T13:48:02;4.97;;;3.67;;
14080;SDS011;7116;52.152;5.392;2023-04-01T13:53:28;5.28;;;4.15;;
14080;SDS011;7116;52.152;5.392;2023-04-01T14:03:49;6.30;;;4.23;;
14080;SDS011;7116;52.152;5.392;2023-04-01T14:09:08;4.93;;;4.22;;
14080;SDS011;7116;52.152;5.392;2023-04-01T14:21:58;5.47;;;4.75;;
14080;SDS011;7116;52.152;5.392;2023-04-01T14:24:32;5.13;;;3.90;;
14080;SDS011;7116;52.152;5.392;2023-04-01T14:33:03;5.57;;;4.60;;
14080;SDS011;7116;52.152;5.392;2023-04-01T14:40:06;4.47;;;3.90;;
14080;SDS011;7116;52.152;5.392;2023-04-01T14:45:51;5.05;;;3.72;;
14080;SDS011;7116;52.152;5.392;2023-04-01T14:48:39;4.72;;;3.83;;
14080;SDS011;7116;52.152;5.392;2023-04-01T14:53:43;5.22;;;4.10;;
14080;SDS011;7116;52.152;5.392;2023-04-01T14:56:10;6.33;;;4.23;;
14080;SDS011;7116;52.152;5.392;2023-04-01T14:58:43;20.38;;;4.47;;
14080;SDS011;7116;52.152;5.392;2023-04-01T15:01:13;6.63;;;3.60;;
14080;SDS011;7116;52.152;5.392;2023-04-01T15:08:56;4.57;;;3.85;;
14080;SDS011;7116;52.152;5.392;2023-04-01T15:37:34;4.78;;;4.25;;
14080;SDS011;7116;52.152;5.392;2023-04-01T15:47:38;6.50;;;3.57;;
14080;SDS011;7116;52.152;5.392;2023-04-01T15:52:43;5.18;;;3.67;;
14080;SDS011;7116;52.152;5.392;2023-04-01T15:55:25;3.83;;;3.42;;
14080;SDS011;7116;52.152;5.392;2023-04-01T16:00:47;3.60;;;3.00;;
14080;SDS011;7116;52.152;5.392;2023-04-01T16:03:24;3.50;;;3.20;;
14080;SDS011;7116;52.152;5.392;2023-04-01T16:13:59;4.30;;;3.57;;
14080;SDS011;7116;52.152;5.392;2023-04-01T16:16:48;5.83;;;3.07;;
14080;SDS011;7116;52.152;5.392;2023-04-01T16:21:47;3.03;;;2.72;;
14080;SDS011;7116;52.152;5.392;2023-04-01T16:29:26;2.70;;;2.30;;
14080;SDS011;7116;52.152;5.392;2023-04-01T16:34:38;3.88;;;3.15;;
14080;SDS011;7116;52.152;5.392;2023-04-01T16:37:17;6.17;;;3.20;;
14080;SDS011;7116;52.152;5.392;2023-04-01T16:40:02;3.28;;;2.97;;
14080;SDS011;7116;52.152;5.392;2023-04-01T16:42:43;4.30;;;3.20;;
14080;SDS011;7116;52.152;5.392;2023-04-01T16:45:17;4.07;;;3.53;;
14080;SDS011;7116;52.152;5.392;2023-04-01T16:47:48;4.85;;;3.88;;
14080;SDS011;7116;52.152;5.392;2023-04-01T16:50:22;4.50;;;3.77;;
14080;SDS011;7116;52.152;5.392;2023-04-01T16:55:49;4.90;;;4.40;;
14080;SDS011;7116;52.152;5.392;2023-04-01T16:58:25;5.43;;;3.38;;
14080;SDS011;7116;52.152;5.392;2023-04-01T17:03:49;4.77;;;4.20;;
14080;SDS011;7116;52.152;5.392;2023-04-01T17:11:39;10.50;;;3.88;;
14080;SDS011;7116;52.152;5.392;2023-04-01T17:17:05;3.97;;;3.40;;
14080;SDS011;7116;52.152;5.392;2023-04-01T17:27:23;4.82;;;4.32;;
14080;SDS011;7116;52.152;5.392;2023-04-01T17:35:11;4.07;;;3.20;;
14080;SDS011;7116;52.152;5.392;2023-04-01T17:42:41;4.15;;;3.10;;
14080;SDS011;7116;52.152;5.392;2023-04-01T17:45:25;4.30;;;3.90;;
14080;SDS011;7116;52.152;5.392;2023-04-01T17:55:55;4.85;;;4.35;;
14080;SDS011;7116;52.152;5.392;2023-04-01T17:58:42;5.00;;;3.67;;
14080;SDS011;7116;52.152;5.392;2023-04-01T18:08:37;5.53;;;3.87;;
14080;SDS011;7116;52.152;5.392;2023-04-01T18:11:13;4.38;;;3.90;;
14080;SDS011;7116;52.152;5.392;2023-04-01T18:13:58;4.68;;;3.95;;
14080;SDS011;7116;52.152;5.392;2023-04-01T18:19:09;4.90;;;4.40;;
14080;SDS011;7116;52.152;5.392;2023-04-01T18:21:45;5.55;;;4.10;;
14080;SDS011;7116;52.152;5.392;2023-04-01T18:27:07;5.45;;;4.32;;
14080;SDS011;7116;52.152;5.392;2023-04-01T18:29:40;4.87;;;4.13;;
14080;SDS011;7116;52.152;5.392;2023-04-01T18:34:43;4.78;;;4.15;;
14080;SDS011;7116;52.152;5.392;2023-04-01T18:37:18;5.88;;;4.88;;
14080;SDS011;7116;52.152;5.392;2023-04-01T18:39:47;6.45;;;4.35;;
14080;SDS011;7116;52.152;5.392;2023-04-01T18:42:24;5.00;;;4.40;;
14080;SDS011;7116;52.152;5.392;2023-04-01T18:44:57;6.25;;;5.18;;
14080;SDS011;7116;52.152;5.392;2023-04-01T18:47:27;5.78;;;5.18;;
14080;SDS011;7116;52.152;5.392;2023-04-01T18:52:40;4.72;;;4.20;;
14080;SDS011;7116;52.152;5.392;2023-04-01T19:00:20;4.20;;;3.80;;
14080;SDS011;7116;52.152;5.392;2023-04-01T19:05:40;8.50;;;4.60;;
14080;SDS011;7116;52.152;5.392;2023-04-01T19:08:13;5.93;;;4.27;;
14080;SDS011;7116;52.152;5.392;2023-04-01T19:18:21;5.30;;;3.97;;
14080;SDS011;7116;52.152;5.392;2023-04-01T19:26:09;4.85;;;3.75;;
14080;SDS011;7116;52.152;5.392;2023-04-01T19:33:36;4.93;;;4.43;;
14080;SDS011;7116;52.152;5.392;2023-04-01T19:36:10;7.85;;;4.40;;
14080;SDS011;7116;52.152;5.392;2023-04-01T19:38:52;5.75;;;5.15;;
14080;SDS011;7116;52.152;5.392;2023-04-01T19:41:25;6.47;;;4.82;;
14080;SDS011;7116;52.152;5.392;2023-04-01T19:49:14;6.07;;;5.45;;
14080;SDS011;7116;52.152;5.392;2023-04-01T19:51:48;6.60;;;5.90;;
14080;SDS011;7116;52.152;5.392;2023-04-01T20:04:43;6.90;;;5.38;;
14080;SDS011;7116;52.152;5.392;2023-04-01T20:07:28;7.80;;;5.60;;
14080;SDS011;7116;52.152;5.392;2023-04-01T20:17:55;9.70;;;5.93;;
14080;SDS011;7116;52.152;5.392;2023-04-01T20:20:24;6.25;;;5.40;;
14080;SDS011;7116;52.152;5.392;2023-04-01T20:23:06;6.95;;;5.93;;
14080;SDS011;7116;52.152;5.392;2023-04-01T20:25:52;7.70;;;5.57;;
14080;SDS011;7116;52.152;5.392;2023-04-01T20:31:01;7.50;;;5.97;;
14080;SDS011;7116;52.152;5.392;2023-04-01T20:33:37;9.13;;;5.63;;
14080;SDS011;7116;52.152;5.392;2023-04-01T20:36:13;7.13;;;6.00;;
14080;SDS011;7116;52.152;5.392;2023-04-01T20:41:11;8.03;;;5.83;;
14080;SDS011;7116;52.152;5.392;2023-04-01T20:46:20;6.82;;;5.90;;
14080;SDS011;7116;52.152;5.392;2023-04-01T20:49:29;7.85;;;5.90;;
14080;SDS011;7116;52.152;5.392;2023-04-01T20:51:37;6.72;;;5.32;;
14080;SDS011;7116;52.152;5.392;2023-04-01T21:02:10;6.85;;;5.70;;
14080;SDS011;7116;52.152;5.392;2023-04-01T21:12:53;7.25;;;6.05;;
14080;SDS011;7116;52.152;5.392;2023-04-01T21:25:52;5.95;;;5.10;;
14080;SDS011;7116;52.152;5.392;2023-04-01T21:28:25;8.20;;;5.38;;
14080;SDS011;7116;52.152;5.392;2023-04-01T21:33:28;8.27;;;5.50;;
14080;SDS011;7116;52.152;5.392;2023-04-01T21:38:48;6.70;;;5.78;;
14080;SDS011;7116;52.152;5.392;2023-04-01T21:49:19;7.13;;;6.03;;
14080;SDS011;7116;52.152;5.392;2023-04-01T21:59:27;8.17;;;5.53;;
14080;SDS011;7116;52.152;5.392;2023-04-01T22:09:39;11.93;;;6.40;;
14080;SDS011;7116;52.152;5.392;2023-04-01T22:12:12;8.57;;;5.70;;
14080;SDS011;7116;52.152;5.392;2023-04-01T22:22:45;7.90;;;5.95;;
14080;SDS011;7116;52.152;5.392;2023-04-01T22:25:15;7.27;;;5.77;;
14080;SDS011;7116;52.152;5.392;2023-04-01T22:27:48;8.93;;;6.18;;
14080;SDS011;7116;52.152;5.392;2023-04-01T22:32:47;7.47;;;6.22;;
14080;SDS011;7116;52.152;5.392;2023-04-01T22:42:52;8.35;;;6.60;;
14080;SDS011;7116;52.152;5.392;2023-04-01T22:45:32;8.85;;;5.85;;
14080;SDS011;7116;52.152;5.392;2023-04-01T22:48:06;10.80;;;6.45;;
14080;SDS011;7116;52.152;5.392;2023-04-01T22:50:36;9.03;;;6.63;;
14080;SDS011;7116;52.152;5.392;2023-04-01T22:53:06;8.93;;;6.40;;
14080;SDS011;7116;52.152;5.392;2023-04-01T22:55:33;9.18;;;6.07;;
14080;SDS011;7116;52.152;5.392;2023-04-01T22:58:12;11.05;;;6.00;;
14080;SDS011;7116;52.152;5.392;2023-04-01T23:00:40;10.20;;;6.35;;
14080;SDS011;7116;52.152;5.392;2023-04-01T23:03:12;9.47;;;6.97;;
14080;SDS011;7116;52.152;5.392;2023-04-01T23:05:44;11.75;;;7.32;;
14080;SDS011;7116;52.152;5.392;2023-04-01T23:13:37;9.75;;;6.82;;
14080;SDS011;7116;52.152;5.392;2023-04-01T23:16:04;9.37;;;6.63;;
14080;SDS011;7116;52.152;5.392;2023-04-01T23:18:37;13.75;;;6.88;;
14080;SDS011;7116;52.152;5.392;2023-04-01T23:26:22;10.77;;;7.37;;
14080;SDS011;7116;52.152;5.392;2023-04-01T23:28:53;11.90;;;7.30;;
14080;SDS011;7116;52.152;5.392;2023-04-01T23:33:52;10.55;;;6.90;;
14080;SDS011;7116;52.152;5.392;2023-04-01T23:36:18;13.57;;;8.63;;
14080;SDS011;7116;52.152;5.392;2023-04-01T23:38:43;12.30;;;7.60;;
14080;SDS011;7116;52.152;5.392;2023-04-01T23:41:28;12.43;;;7.77;;
14080;SDS011;7116;52.152;5.392;2023-04-01T23:43:59;10.65;;;8.02;;
14080;SDS011;7116;52.152;5.392;2023-04-01T23:46:25;11.38;;;8.20;;
14080;SDS011;7116;52.152;5.392;2023-04-01T23:48:50;14.17;;;8.23;;
14080;SDS011;7116;52.152;5.392;2023-04-01T23:51:24;14.02;;;7.40;;
14080;SDS011;7116;52.152;5.392;2023-04-01T23:53:58;12.63;;;8.38;;
14080;SDS011;7116;52.152;5.392;2023-04-01T23:56:32;11.63;;;7.95;;
14080;SDS011;7116;52.152;5.392;2023-04-01T23:58:58;12.10;;;8.13;;
